Time;durP1;ratioP1;P1;durP2;ratioP2;P2;SDS_P1;SDS_P2;PMS_P1;PMS_P2;Temp;Humidity;BMP_temperature;BMP_pressure;BME280_temperature;BME280_humidity;BME280_pressure;Samples;Min_cycle;Max_cycle;Signal;HPM_P1;HPM_P2
2021/11/17 02:27:41;;;;;;;;;;;;;;;6.45;100.00;95289.16;10403796;28;20000;-74
2021/11/17 02:32:47;;;;;;;;;;;;;;;6.49;100.00;95279.63;10403754;28;19913;-73
2021/11/17 02:37:50;;;;;;;;;;;;;;;6.53;100.00;95274.63;10404829;28;19924;-74
2021/11/17 02:42:51;;;;;;;;;;;;;;;6.29;100.00;95279.16;10403330;28;20013;-73
2021/11/17 02:48:09;;;;;;;;;;;;;;;6.12;100.00;95277.19;10402982;28;19913;-73
2021/11/17 02:53:29;;;;;;;;;;;;;;;6.10;100.00;95281.16;10402465;28;19921;-73
2021/11/17 02:58:29;;;;;;;;;;;;;;;6.03;100.00;95281.25;10402212;28;19966;-77
2021/11/17 03:03:29;;;;;;;;;;;;;;;6.10;100.00;95281.94;10401640;28;19921;-73
2021/11/17 03:08:43;;;;;;;;;;;;;;;6.28;100.00;95283.69;10403367;28;19917;-75
2021/11/17 03:14:10;;;;;;;;;;;;;;;6.44;100.00;95279.50;10385443;28;20003;-74
2021/11/17 03:19:22;;;;;;;;;;;;;;;6.41;100.00;95277.31;10384847;28;20303;-74
2021/11/17 03:24:32;;;;;;;;;;;;;;;6.41;100.00;95276.50;10401295;28;20322;-74
2021/11/17 03:29:32;;;;;;;;;;;;;;;6.34;100.00;95276.63;10401428;28;19913;-73
2021/11/17 03:34:32;;;;;;;;;;;;;;;6.24;100.00;95269.19;10400882;28;19932;-72
2021/11/17 03:39:40;;;;;;;;;;;;;;;6.28;100.00;95267.69;10401089;28;19921;-74
2021/11/17 03:44:52;;;;;;;;;;;;;;;6.36;100.00;95266.50;10384328;28;19917;-74
2021/11/17 03:49:56;;;;;;;;;;;;;;;6.49;100.00;95263.59;10400722;28;19978;-74
2021/11/17 03:54:56;;;;;;;;;;;;;;;6.37;100.00;95260.13;10400661;28;20275;-73
2021/11/17 04:00:22;;;;;;;;;;;;;;;6.45;100.00;95272.31;10401883;28;19921;-73
2021/11/17 04:05:29;;;;;;;;;;;;;;;6.37;100.00;95257.47;10383688;28;19913;-73
2021/11/17 04:10:56;;;;;;;;;;;;;;;6.54;100.00;95257.56;10383865;28;19913;-73
2021/11/17 04:16:06;;;;;;;;;;;;;;;6.68;100.00;95255.44;10384718;28;19959;-72
2021/11/17 04:21:09;;;;;;;;;;;;;;;6.47;100.00;95259.53;10400212;28;19921;-73
2021/11/17 04:26:31;;;;;;;;;;;;;;;6.39;100.00;95267.91;10399762;28;20006;-74
2021/11/17 04:31:38;;;;;;;;;;;;;;;6.32;100.00;95262.69;10382940;28;19986;-76
2021/11/17 04:36:47;;;;;;;;;;;;;;;6.36;100.00;95265.69;10399608;28;20357;-72
2021/11/17 04:41:57;;;;;;;;;;;;;;;6.31;100.00;95271.75;10399177;28;19921;-71
2021/11/17 04:47:04;;;;;;;;;;;;;;;6.44;100.00;95260.81;10382495;28;20012;-75
2021/11/17 04:52:16;;;;;;;;;;;;;;;6.38;100.00;95276.94;10388311;28;19982;-74
2021/11/17 04:57:16;;;;;;;;;;;;;;;6.45;100.00;95272.31;10400417;28;20374;-75
2021/11/17 05:02:35;;;;;;;;;;;;;;;6.45;100.00;95270.44;10397541;28;19921;-73
2021/11/17 05:07:45;;;;;;;;;;;;;;;6.39;100.00;95271.41;10391757;28;19965;-73
2021/11/17 05:12:49;;;;;;;;;;;;;;;6.41;100.00;95271.97;10382190;28;20468;-74
2021/11/17 05:17:55;;;;;;;;;;;;;;;6.30;100.00;95280.78;10398312;28;19913;-76
2021/11/17 05:23:15;;;;;;;;;;;;;;;6.18;100.00;95277.31;10399322;28;19921;-73
2021/11/17 05:28:24;;;;;;;;;;;;;;;6.19;100.00;95279.75;10386536;28;19921;-77
2021/11/17 05:33:30;;;;;;;;;;;;;;;6.06;100.00;95301.34;10388961;28;19988;-77
2021/11/17 05:38:31;;;;;;;;;;;;;;;5.88;100.00;95289.66;10405096;28;19940;-75
2021/11/17 05:44:06;;;;;;;;;;;;;;;5.89;100.00;95295.81;10405045;28;19932;-77
2021/11/17 05:49:07;;;;;;;;;;;;;;;5.73;100.00;95297.28;10383095;28;19983;-77
2021/11/17 05:54:26;;;;;;;;;;;;;;;5.78;100.00;95308.09;10420570;28;20337;-77
2021/11/17 05:59:32;;;;;;;;;;;;;;;5.89;100.00;95301.13;10380296;28;19923;-74
2021/11/17 06:04:32;;;;;;;;;;;;;;;5.95;100.00;95308.25;10368499;28;20422;-76
2021/11/17 06:09:33;;;;;;;;;;;;;;;5.87;100.00;95305.91;10377079;28;20259;-74
2021/11/17 06:14:35;;;;;;;;;;;;;;;5.84;100.00;95309.03;10410466;28;19913;-77
2021/11/17 06:19:40;;;;;;;;;;;;;;;5.82;100.00;95304.72;10404139;28;20395;-74
2021/11/17 06:24:41;;;;;;;;;;;;;;;6.06;100.00;95315.47;10402735;28;19913;-75
2021/11/17 06:29:47;;;;;;;;;;;;;;;6.27;100.00;95330.13;10402902;28;20383;-75
2021/11/17 06:34:49;;;;;;;;;;;;;;;6.32;100.00;95338.25;10418496;28;19983;-77
2021/11/17 06:39:53;;;;;;;;;;;;;;;6.23;100.00;95344.16;10402858;28;20382;-74
2021/11/17 06:44:55;;;;;;;;;;;;;;;6.20;100.00;95334.75;10419064;28;19921;-77
2021/11/17 06:49:55;;;;;;;;;;;;;;;6.20;100.00;95344.63;10403690;28;20139;-74
2021/11/17 06:54:55;;;;;;;;;;;;;;;6.10;100.00;95351.34;10401958;28;19917;-77
2021/11/17 06:59:56;;;;;;;;;;;;;;;6.04;100.00;95348.75;10418027;28;20409;-75
2021/11/17 07:04:56;;;;;;;;;;;;;;;5.94;100.00;95338.63;10418685;28;19917;-75
2021/11/17 07:09:56;;;;;;;;;;;;;;;5.98;100.00;95351.28;10401765;28;19913;-77
2021/11/17 07:14:56;;;;;;;;;;;;;;;6.05;100.00;95347.72;10417835;28;19919;-73
2021/11/17 07:19:57;;;;;;;;;;;;;;;6.07;100.00;95345.63;10403137;28;20469;-73
2021/11/17 07:24:57;;;;;;;;;;;;;;;6.01;100.00;95352.69;10401442;28;20263;-73
2021/11/17 07:29:57;;;;;;;;;;;;;;;6.08;100.00;95350.72;10417961;28;19913;-76
2021/11/17 07:34:58;;;;;;;;;;;;;;;6.16;100.00;95345.06;10400811;28;19980;-80
2021/11/17 07:39:58;;;;;;;;;;;;;;;6.08;100.00;95356.06;10417313;28;20353;-76
2021/11/17 07:44:58;;;;;;;;;;;;;;;6.19;100.00;95354.47;10401509;28;20053;-74
2021/11/17 07:50:01;;;;;;;;;;;;;;;6.21;100.00;95355.06;10401090;28;19928;-74
2021/11/17 07:55:03;;;;;;;;;;;;;;;6.16;100.00;95358.41;10399999;28;19936;-75
2021/11/17 08:00:05;;;;;;;;;;;;;;;6.08;100.00;95350.72;10416016;28;20071;-75
2021/11/17 08:05:06;;;;;;;;;;;;;;;5.97;100.00;95354.16;10400001;28;19917;-78
2021/11/17 08:10:14;;;;;;;;;;;;;;;6.16;100.00;95349.59;10416535;28;19916;-73
2021/11/17 08:15:15;;;;;;;;;;;;;;;6.41;100.00;95356.59;10416256;28;19913;-73
2021/11/17 08:20:18;;;;;;;;;;;;;;;6.59;100.00;95353.81;10416925;28;20348;-81
2021/11/17 08:25:20;;;;;;;;;;;;;;;6.97;100.00;95357.03;10404846;28;19922;-76
2021/11/17 08:30:22;;;;;;;;;;;;;;;7.25;100.00;95352.78;10416220;28;19928;-74
2021/11/17 08:35:24;;;;;;;;;;;;;;;7.22;100.00;95351.41;10415930;28;20035;-74
2021/11/17 08:40:29;;;;;;;;;;;;;;;7.50;100.00;95352.47;10415894;28;19965;-73
2021/11/17 08:45:30;;;;;;;;;;;;;;;7.56;100.00;95356.88;10416247;28;19971;-74
2021/11/17 08:50:32;;;;;;;;;;;;;;;7.46;100.00;95354.00;10415641;28;20394;-76
2021/11/17 08:55:32;;;;;;;;;;;;;;;7.38;100.00;95357.06;10415985;28;20405;-78
2021/11/17 09:00:33;;;;;;;;;;;;;;;7.16;100.00;95363.06;10405109;28;19924;-74
2021/11/17 09:05:36;;;;;;;;;;;;;;;7.32;100.00;95356.94;10422773;28;20004;-74
2021/11/17 09:10:38;;;;;;;;;;;;;;;7.35;100.00;95343.13;10422220;28;19917;-78
2021/11/17 09:15:40;;;;;;;;;;;;;;;7.10;100.00;95340.75;10423173;28;19917;-78
2021/11/17 09:20:41;;;;;;;;;;;;;;;7.28;100.00;95338.94;10422946;28;19918;-74
2021/11/17 09:25:41;;;;;;;;;;;;;;;7.23;100.00;95328.16;10422590;28;19913;-75
2021/11/17 09:30:42;;;;;;;;;;;;;;;7.12;100.00;95337.84;10405828;28;19967;-74
2021/11/17 09:35:43;;;;;;;;;;;;;;;7.35;100.00;95324.41;10422086;28;19971;-74
2021/11/17 09:40:45;;;;;;;;;;;;;;;7.49;100.00;95326.78;10421886;28;19960;-73
2021/11/17 09:45:47;;;;;;;;;;;;;;;7.46;100.00;95322.72;10421689;28;19928;-75
2021/11/17 09:50:51;;;;;;;;;;;;;;;7.63;100.00;95317.44;10405015;28;19913;-76
2021/11/17 09:55:54;;;;;;;;;;;;;;;7.92;100.00;95311.22;10403744;28;20312;-76
2021/11/17 10:00:58;;;;;;;;;;;;;;;8.07;100.00;95295.41;10421223;28;20432;-76
2021/11/17 10:16:39;;;;;;;;;;;;;;;8.46;100.00;95281.31;10404431;28;19999;-75
2021/11/17 10:21:39;;;;;;;;;;;;;;;8.33;100.00;95269.84;10404506;28;20394;-77
2021/11/17 10:26:48;;;;;;;;;;;;;;;8.31;100.00;95265.78;10404687;28;20036;-74
2021/11/17 10:31:51;;;;;;;;;;;;;;;8.60;100.00;95263.81;10404435;28;19944;-74
2021/11/17 10:37:01;;;;;;;;;;;;;;;8.59;100.00;95256.84;10402903;28;19920;-73
2021/11/17 10:42:06;;;;;;;;;;;;;;;8.59;100.00;95261.38;10402210;28;19925;-74
2021/11/17 10:47:11;;;;;;;;;;;;;;;8.59;100.00;95253.34;10402953;28;19932;-74
2021/11/17 10:52:12;;;;;;;;;;;;;;;8.68;100.00;95241.97;10402360;28;19975;-74
2021/11/17 10:57:16;;;;;;;;;;;;;;;8.32;100.00;95249.47;10403396;28;20288;-76
2021/11/17 11:02:16;;;;;;;;;;;;;;;8.35;100.00;95248.19;10402113;28;20432;-76
2021/11/17 11:07:20;;;;;;;;;;;;;;;8.34;100.00;95244.69;10401652;28;20079;-71
2021/11/17 11:12:22;;;;;;;;;;;;;;;8.39;100.00;95233.25;10402258;28;19917;-74
2021/11/17 11:17:24;;;;;;;;;;;;;;;8.53;100.00;95231.84;10401587;28;19975;-77
2021/11/17 11:22:24;;;;;;;;;;;;;;;8.58;100.00;95225.72;10400296;28;20502;-74
2021/11/17 11:27:29;;;;;;;;;;;;;;;8.53;100.00;95229.16;10400395;28;19996;-74
2021/11/17 11:32:29;;;;;;;;;;;;;;;8.59;100.00;95226.56;10400925;28;19956;-75
2021/11/17 11:37:30;;;;;;;;;;;;;;;8.62;100.00;95218.81;10400369;28;20592;-76
2021/11/17 11:42:38;;;;;;;;;;;;;;;8.62;100.00;95212.66;10399712;28;19921;-78
2021/11/17 11:47:38;;;;;;;;;;;;;;;8.42;100.00;95216.66;10399908;28;20379;-74
2021/11/17 11:52:57;;;;;;;;;;;;;;;8.57;100.00;95204.56;10400063;28;20317;-75
2021/11/17 11:58:16;;;;;;;;;;;;;;;8.47;100.00;95205.22;10399805;28;19913;-77
2021/11/17 12:03:17;;;;;;;;;;;;;;;8.61;100.00;95201.16;10401226;28;20018;-75
2021/11/17 12:08:20;;;;;;;;;;;;;;;8.85;100.00;95200.91;10399952;28;20090;-73
2021/11/17 12:13:22;;;;;;;;;;;;;;;8.61;100.00;95205.69;10399790;28;19913;-77
2021/11/17 12:18:23;;;;;;;;;;;;;;;8.48;100.00;95204.19;10400788;28;20006;-74
2021/11/17 12:23:34;;;;;;;;;;;;;;;8.36;100.00;95199.72;10383121;28;19975;-78
2021/11/17 12:28:42;;;;;;;;;;;;;;;8.14;100.00;95196.22;10398994;28;19913;-73
2021/11/17 12:33:49;;;;;;;;;;;;;;;8.23;100.00;95188.56;10402507;28;19913;-74
2021/11/17 12:38:51;;;;;;;;;;;;;;;8.16;100.00;95184.19;10390768;28;19929;-75
2021/11/17 12:44:01;;;;;;;;;;;;;;;8.35;100.00;95184.69;10407794;28;19960;-78
2021/11/17 12:49:20;;;;;;;;;;;;;;;8.28;100.00;95188.63;10407127;28;20424;-73
2021/11/17 12:54:30;;;;;;;;;;;;;;;8.24;100.00;95185.63;10406761;28;20405;-77
2021/11/17 12:59:38;;;;;;;;;;;;;;;8.06;100.00;95180.56;10406633;28;19913;-75
2021/11/17 13:04:40;;;;;;;;;;;;;;;7.81;100.00;95192.50;10406738;28;19958;-75
2021/11/17 13:09:45;;;;;;;;;;;;;;;7.60;100.00;95194.84;10406597;28;19913;-74
2021/11/17 13:14:45;;;;;;;;;;;;;;;7.67;100.00;95195.53;10407493;28;19913;-77
2021/11/17 13:19:51;;;;;;;;;;;;;;;7.79;100.00;95194.63;10405838;28;19913;-73
2021/11/17 13:24:53;;;;;;;;;;;;;;;7.68;100.00;95194.44;10389790;28;19924;-75
2021/11/17 13:29:59;;;;;;;;;;;;;;;7.72;100.00;95194.78;10405383;28;19996;-73
2021/11/17 13:35:00;;;;;;;;;;;;;;;7.58;100.00;95182.78;10405416;28;19986;-74
2021/11/17 13:40:03;;;;;;;;;;;;;;;7.57;100.00;95186.50;10404544;28;19925;-75
2021/11/17 13:45:07;;;;;;;;;;;;;;;7.53;100.00;95184.31;10404252;28;19917;-73
2021/11/17 13:50:10;;;;;;;;;;;;;;;7.60;100.00;95183.34;10404473;28;20620;-75
2021/11/17 13:55:12;;;;;;;;;;;;;;;7.56;100.00;95179.53;10404614;28;19936;-73
2021/11/17 14:00:13;;;;;;;;;;;;;;;7.49;100.00;95177.84;10403347;28;19917;-77
2021/11/17 14:05:19;;;;;;;;;;;;;;;7.65;100.00;95175.41;10403994;28;19920;-74
2021/11/17 14:10:22;;;;;;;;;;;;;;;7.73;100.00;95174.19;10403844;28;19975;-72
2021/11/17 14:15:23;;;;;;;;;;;;;;;7.67;100.00;95184.81;10404681;28;19965;-75
2021/11/17 14:20:24;;;;;;;;;;;;;;;7.60;100.00;95186.81;10403597;28;20312;-78
2021/11/17 14:25:25;;;;;;;;;;;;;;;7.76;100.00;95184.38;10378332;28;19923;-73
2021/11/17 14:30:31;;;;;;;;;;;;;;;7.91;100.00;95187.31;10392337;28;20000;-73
2021/11/17 14:35:31;;;;;;;;;;;;;;;7.71;100.00;95177.09;10402609;28;20714;-75
2021/11/17 14:40:32;;;;;;;;;;;;;;;7.60;100.00;95173.44;10398529;28;19925;-77
2021/11/17 14:45:33;;;;;;;;;;;;;;;7.56;100.00;95176.84;10403546;28;20004;-75
2021/11/17 14:50:33;;;;;;;;;;;;;;;7.47;100.00;95179.94;10402686;28;20379;-80
2021/11/17 14:55:34;;;;;;;;;;;;;;;7.39;100.00;95184.88;10403418;28;19920;-74
2021/11/17 15:00:36;;;;;;;;;;;;;;;7.22;100.00;95185.66;10400830;28;19917;-74
2021/11/17 15:05:37;;;;;;;;;;;;;;;7.26;100.00;95191.34;10402244;28;20035;-73
2021/11/17 15:10:37;;;;;;;;;;;;;;;7.10;100.00;95185.72;10400581;28;20047;-75
2021/11/17 15:15:39;;;;;;;;;;;;;;;6.99;100.00;95192.75;10384437;28;19913;-75
2021/11/17 15:20:39;;;;;;;;;;;;;;;6.89;100.00;95192.53;10417571;28;20384;-74
2021/11/17 15:25:41;;;;;;;;;;;;;;;6.82;100.00;95197.22;10402304;28;19947;-75
2021/11/17 15:30:44;;;;;;;;;;;;;;;6.76;100.00;95198.19;10417447;28;20437;-74
2021/11/17 15:35:44;;;;;;;;;;;;;;;6.69;100.00;95194.84;10416829;28;19921;-74
2021/11/17 15:40:48;;;;;;;;;;;;;;;6.53;100.00;95194.53;10397562;28;19932;-74
2021/11/17 15:45:49;;;;;;;;;;;;;;;6.56;100.00;95188.72;10394656;28;19944;-74
2021/11/17 15:50:55;;;;;;;;;;;;;;;6.41;100.00;95191.88;10398931;28;19917;-75
2021/11/17 15:55:55;;;;;;;;;;;;;;;6.41;100.00;95193.75;10416038;28;19913;-74
2021/11/17 16:00:56;;;;;;;;;;;;;;;6.29;100.00;95197.25;10396132;28;19929;-74
2021/11/17 16:05:58;;;;;;;;;;;;;;;6.29;100.00;95199.09;10398277;28;20035;-77
2021/11/17 16:10:59;;;;;;;;;;;;;;;6.23;100.00;95203.50;10413677;28;20381;-73
2021/11/17 16:16:00;;;;;;;;;;;;;;;6.05;100.00;95209.78;10412371;28;19928;-73
2021/11/17 16:21:03;;;;;;;;;;;;;;;6.00;100.00;95209.69;10392228;28;20025;-75
2021/11/17 16:26:11;;;;;;;;;;;;;;;6.04;100.00;95202.00;10398771;28;19913;-73
2021/11/17 16:31:14;;;;;;;;;;;;;;;5.95;100.00;95197.00;10399083;28;19932;-73
2021/11/17 16:36:14;;;;;;;;;;;;;;;5.83;100.00;95196.16;10394209;28;20430;-75
2021/11/17 16:41:17;;;;;;;;;;;;;;;5.77;100.00;95202.44;10384853;28;19969;-75
2021/11/17 16:46:18;;;;;;;;;;;;;;;5.76;100.00;95214.16;10371865;28;19968;-75
2021/11/17 16:51:19;;;;;;;;;;;;;;;5.64;100.00;95217.63;10398944;28;20450;-76
2021/11/17 16:56:19;;;;;;;;;;;;;;;5.58;100.00;95226.53;10395323;28;19913;-72
2021/11/17 17:01:20;;;;;;;;;;;;;;;5.56;100.00;95227.81;10379674;28;19917;-74
2021/11/17 17:06:22;;;;;;;;;;;;;;;5.55;100.00;95237.66;10398461;28;19913;-73
2021/11/17 17:11:22;;;;;;;;;;;;;;;5.51;100.00;95236.47;10398322;28;20465;-75
2021/11/17 17:16:24;;;;;;;;;;;;;;;5.48;100.00;95227.09;10382349;28;20127;-76
2021/11/17 17:21:24;;;;;;;;;;;;;;;5.46;100.00;95239.84;10403893;28;19921;-75
2021/11/17 17:26:24;;;;;;;;;;;;;;;5.47;100.00;95235.34;10406996;28;19913;-77
2021/11/17 17:31:25;;;;;;;;;;;;;;;5.46;100.00;95252.38;10406989;28;19913;-75
2021/11/17 17:36:26;;;;;;;;;;;;;;;5.14;100.00;95242.75;10406630;28;19917;-74
2021/11/17 17:41:26;;;;;;;;;;;;;;;5.22;100.00;95254.97;10404757;28;19925;-75
2021/11/17 17:46:28;;;;;;;;;;;;;;;5.28;100.00;95243.38;10404899;28;20435;-75
2021/11/17 17:51:29;;;;;;;;;;;;;;;5.29;100.00;95246.88;10405419;28;19913;-78
2021/11/17 17:56:30;;;;;;;;;;;;;;;5.26;100.00;95264.13;10404816;28;19920;-77
2021/11/17 18:01:30;;;;;;;;;;;;;;;5.26;100.00;95264.13;10403782;28;19921;-74
2021/11/17 18:06:30;;;;;;;;;;;;;;;5.26;100.00;95269.47;10403925;28;20345;-73
2021/11/17 18:11:31;;;;;;;;;;;;;;;5.14;100.00;95271.25;10403736;28;19917;-73
2021/11/17 18:16:31;;;;;;;;;;;;;;;5.16;100.00;95279.81;10401445;28;20036;-72
2021/11/17 18:21:32;;;;;;;;;;;;;;;5.21;100.00;95277.31;10405180;28;19932;-73
2021/11/17 18:26:40;;;;;;;;;;;;;;;5.18;100.00;95272.44;10420224;28;19924;-74
2021/11/17 18:31:40;;;;;;;;;;;;;;;5.18;100.00;95280.44;10401724;28;20414;-75
2021/11/17 18:36:42;;;;;;;;;;;;;;;5.20;100.00;95267.69;10398847;28;19917;-76
2021/11/17 18:41:54;;;;;;;;;;;;;;;5.26;100.00;95277.44;10416827;28;20295;-77
2021/11/17 18:46:54;;;;;;;;;;;;;;;5.30;100.00;95275.97;10401882;28;19927;-73
2021/11/17 18:51:56;;;;;;;;;;;;;;;5.08;100.00;95291.63;10400376;28;19920;-75
2021/11/17 18:56:56;;;;;;;;;;;;;;;5.16;100.00;95287.81;10400721;28;20039;-77
2021/11/17 19:02:02;;;;;;;;;;;;;;;5.18;100.00;95291.09;10401318;28;19923;-73
2021/11/17 19:07:02;;;;;;;;;;;;;;;5.08;100.00;95293.44;10400968;28;20015;-77
2021/11/17 19:12:02;;;;;;;;;;;;;;;5.06;100.00;95309.66;10400151;28;20036;-75
2021/11/17 19:17:04;;;;;;;;;;;;;;;5.10;100.00;95304.72;10377701;28;19918;-74
2021/11/17 19:22:04;;;;;;;;;;;;;;;5.02;100.00;95305.81;10363859;28;19917;-73
2021/11/17 19:27:05;;;;;;;;;;;;;;;5.02;100.00;95302.34;10416544;28;20678;-78
2021/11/17 19:32:07;;;;;;;;;;;;;;;4.92;100.00;95310.88;10417294;28;19998;-73
2021/11/17 19:37:08;;;;;;;;;;;;;;;5.01;100.00;95311.38;10400035;28;19913;-75
2021/11/17 19:42:08;;;;;;;;;;;;;;;5.02;100.00;95321.00;10399415;28;20118;-74
2021/11/17 19:47:09;;;;;;;;;;;;;;;5.05;100.00;95320.56;10399508;28;19927;-77
2021/11/17 19:52:16;;;;;;;;;;;;;;;5.04;100.00;95319.75;10400009;28;19913;-76
2021/11/17 19:57:18;;;;;;;;;;;;;;;5.08;100.00;95322.75;10399208;28;19956;-73
2021/11/17 20:02:21;;;;;;;;;;;;;;;5.15;100.00;95323.50;10399293;28;19921;-73
2021/11/17 20:07:26;;;;;;;;;;;;;;;5.08;100.00;95322.75;10400166;28;20221;-73
2021/11/17 20:12:29;;;;;;;;;;;;;;;5.07;100.00;95316.63;10399139;28;19917;-77
2021/11/17 20:17:29;;;;;;;;;;;;;;;5.01;100.00;95322.03;10399965;28;20289;-70
2021/11/17 20:22:30;;;;;;;;;;;;;;;4.95;100.00;95308.59;10399331;28;19921;-75
2021/11/17 20:27:30;;;;;;;;;;;;;;;4.93;100.00;95307.97;10399393;28;20010;-76
2021/11/17 20:32:31;;;;;;;;;;;;;;;4.93;100.00;95313.31;10400234;28;20345;-74
2021/11/17 20:37:31;;;;;;;;;;;;;;;4.87;100.00;95314.22;10400268;28;20032;-77
2021/11/17 20:42:32;;;;;;;;;;;;;;;4.84;100.00;95322.63;10398889;28;19928;-76
2021/11/17 20:47:32;;;;;;;;;;;;;;;4.76;100.00;95317.63;10398704;28;19986;-75
2021/11/17 20:52:34;;;;;;;;;;;;;;;4.57;100.00;95322.13;10397999;28;19971;-77
2021/11/17 20:57:34;;;;;;;;;;;;;;;4.57;100.00;95317.59;10411879;28;19915;-78
2021/11/17 21:02:35;;;;;;;;;;;;;;;4.60;100.00;95316.34;10406606;28;20313;-75
2021/11/17 21:07:36;;;;;;;;;;;;;;;4.49;100.00;95323.19;10405083;28;19913;-75
2021/11/17 21:12:36;;;;;;;;;;;;;;;4.24;100.00;95323.25;10405204;28;19917;-73
2021/11/17 21:17:36;;;;;;;;;;;;;;;4.09;100.00;95334.22;10405492;28;19924;-76
2021/11/17 21:22:37;;;;;;;;;;;;;;;3.84;100.00;95336.88;10422632;28;19917;-73
2021/11/17 21:27:38;;;;;;;;;;;;;;;3.90;100.00;95336.00;10405118;28;19925;-74
2021/11/17 21:32:38;;;;;;;;;;;;;;;3.83;100.00;95354.66;10405247;28;20011;-77
2021/11/17 21:37:38;;;;;;;;;;;;;;;3.66;100.00;95351.72;10406144;28;20005;-75
2021/11/17 21:42:39;;;;;;;;;;;;;;;3.66;100.00;95353.56;10421685;28;20427;-77
2021/11/17 21:47:40;;;;;;;;;;;;;;;3.62;100.00;95357.69;10421319;28;19917;-76
2021/11/17 21:52:40;;;;;;;;;;;;;;;3.54;100.00;95358.72;10422026;28;19967;-74
2021/11/17 21:57:41;;;;;;;;;;;;;;;3.37;100.00;95358.41;10421301;28;19917;-76
2021/11/17 22:02:41;;;;;;;;;;;;;;;3.14;100.00;95357.09;10420881;28;20362;-75
2021/11/17 22:07:42;;;;;;;;;;;;;;;3.08;100.00;95357.94;10403858;28;20003;-72
2021/11/17 22:12:43;;;;;;;;;;;;;;;3.04;100.00;95357.53;10405492;28;19913;-73
2021/11/17 22:17:44;;;;;;;;;;;;;;;3.00;100.00;95352.84;10420092;28;20377;-74
2021/11/17 22:22:44;;;;;;;;;;;;;;;3.02;100.00;95348.97;10420886;28;19990;-73
2021/11/17 22:27:45;;;;;;;;;;;;;;;2.88;100.00;95339.44;10405371;28;20315;-72
2021/11/17 22:32:45;;;;;;;;;;;;;;;2.97;100.00;95355.94;10407585;28;19914;-79
2021/11/17 22:37:46;;;;;;;;;;;;;;;2.86;100.00;95344.13;10404713;28;19917;-76
2021/11/17 22:42:47;;;;;;;;;;;;;;;2.84;100.00;95351.50;10402998;28;20008;-72
2021/11/17 22:47:47;;;;;;;;;;;;;;;2.85;100.00;95353.13;10403310;28;19925;-75
2021/11/17 22:52:47;;;;;;;;;;;;;;;2.79;100.00;95357.44;10404387;28;19913;-75
2021/11/17 22:57:49;;;;;;;;;;;;;;;2.82;100.00;95362.31;10402755;28;19917;-73
2021/11/17 23:02:49;;;;;;;;;;;;;;;2.89;100.00;95357.78;10403840;28;19921;-75
2021/11/17 23:07:50;;;;;;;;;;;;;;;2.85;100.00;95355.78;10418990;28;19917;-72
2021/11/17 23:12:51;;;;;;;;;;;;;;;2.87;100.00;95359.84;10419122;28;19917;-76
2021/11/17 23:17:52;;;;;;;;;;;;;;;2.77;100.00;95356.00;10410286;28;20362;-72
2021/11/17 23:22:54;;;;;;;;;;;;;;;2.72;100.00;95357.44;10403155;28;19917;-76
2021/11/17 23:27:55;;;;;;;;;;;;;;;2.96;100.00;95360.44;10418543;28;20199;-73
2021/11/17 23:33:01;;;;;;;;;;;;;;;2.97;100.00;95363.91;10402576;28;19921;-72
2021/11/17 23:38:02;;;;;;;;;;;;;;;2.95;100.00;95363.31;10418137;28;19913;-73
2021/11/17 23:43:03;;;;;;;;;;;;;;;3.08;100.00;95353.44;10417821;28;20454;-76
2021/11/17 23:48:03;;;;;;;;;;;;;;;3.09;100.00;95356.91;10402653;28;19913;-73
2021/11/17 23:53:05;;;;;;;;;;;;;;;3.03;100.00;95347.94;10417649;28;19920;-77
2021/11/17 23:58:05;;;;;;;;;;;;;;;3.04;100.00;95351.41;10401948;28;19916;-72
